Terminal Aerodrome Forecast
Issued by NWS Newport/Morehead City, NC

Home | Current Version | Previous Version | Text Only | Print | Product List | Glossary On
Versions: 1 2 3 4 5 6 7 8 9 10 11 12 13 14 15
000
FTUS42 KMHX 280547
TAFEWN
TAF
KEWN 280547Z 2806/2906 00000KT 6SM BR SCT200
     FM280700 00000KT 2SM BR SCT003 SCT200
     FM280900 00000KT 1/2SM FG SCT003 BKN070
     FM281300 VRB03KT 3SM BR SCT070
     FM281500 12005KT P6SM BKN070=

USA.gov is the U.S. government's official web portal to all federal, state and local government web resources and services.